Time;durP1;ratioP1;P1;durP2;ratioP2;P2;SDS_P1;SDS_P2;PMS_P1;PMS_P2;Temp;Humidity;BMP_temperature;BMP_pressure;BME280_temperature;BME280_humidity;BME280_pressure;Samples;Min_cycle;Max_cycle;Signal;HPM_P1;HPM_P2
2022/07/06 00:00:50;;;;;;;2.05;1.15;;;18.60;75.30;;;18.77;55.03;101812.38;5198897;28;20128;-84
2022/07/06 00:03:22;;;;;;;2.78;1.17;;;18.50;75.00;;;18.70;55.10;101811.38;5262442;22;20077;-67
2022/07/06 00:05:54;;;;;;;1.15;1.00;;;18.50;75.20;;;18.70;55.41;101821.94;5205065;28;20041;-67
2022/07/06 00:08:26;;;;;;;1.85;0.98;;;18.50;75.40;;;18.70;55.65;101827.25;5216656;28;20055;-68
2022/07/06 00:10:59;;;;;;;1.65;1.00;;;18.40;75.80;;;18.74;56.24;101822.91;5197797;28;20042;-68
2022/07/06 00:13:32;;;;;;;2.05;1.27;;;18.40;76.50;;;18.74;56.89;101826.44;5197958;28;20394;-67
2022/07/06 00:16:05;;;;;;;1.35;1.00;;;18.40;77.30;;;18.74;57.33;101828.19;5206948;28;20041;-69
2022/07/06 00:18:37;;;;;;;1.15;1.00;;;18.40;77.90;;;18.70;58.10;101828.13;5215503;28;20519;-67
2022/07/06 00:21:10;;;;;;;2.05;1.10;;;18.40;78.60;;;18.62;57.85;101824.44;5213965;28;20063;-67
2022/07/06 00:23:42;;;;;;;1.73;1.20;;;18.30;78.30;;;18.56;57.62;101834.00;5205883;28;20053;-67
2022/07/06 00:26:14;;;;;;;1.25;1.00;;;18.30;78.10;;;18.45;57.51;101839.06;5205573;28;20046;-69
2022/07/06 00:28:48;;;;;;;1.75;1.05;;;18.20;77.90;;;18.34;57.70;101837.97;5203990;28;20148;-67
2022/07/06 00:31:20;;;;;;;2.10;1.20;;;18.10;78.10;;;18.28;57.73;101833.47;5204509;28;20498;-66
2022/07/06 00:33:52;;;;;;;3.40;1.10;;;18.00;78.30;;;18.21;57.63;101831.56;5205782;28;20049;-67
2022/07/06 00:36:24;;;;;;;1.90;1.30;;;18.00;78.40;;;18.16;57.82;101827.94;5214346;28;20425;-67
2022/07/06 00:38:56;;;;;;;2.30;1.05;;;17.90;78.50;;;18.14;57.94;101829.69;5226227;28;20124;-67
2022/07/06 00:41:28;;;;;;;4.00;1.77;;;17.90;78.90;;;18.05;57.93;101833.00;5226210;28;20071;-67
2022/07/06 00:44:09;;;;;;;2.35;1.10;;;17.80;78.60;;;18.02;57.85;101835.59;5224984;28;20056;-67
2022/07/06 00:46:41;;;;;;;;;;;17.80;78.70;;;17.95;57.72;101838.97;5225062;28;20052;-68
2022/07/06 00:52:00;;;;;;;2.13;1.40;;;17.60;78.90;;;17.78;58.07;101843.84;5206655;28;20664;-68
2022/07/06 00:54:33;;;;;;;1.77;1.33;;;17.50;79.00;;;17.72;58.19;101837.56;5206092;28;20058;-68
2022/07/06 00:57:07;;;;;;;1.83;1.10;;;17.50;79.20;;;17.70;58.44;101847.16;5217569;28;20049;-67
2022/07/06 00:59:40;;;;;;;1.63;1.10;;;17.40;79.60;;;17.70;58.67;101841.88;5224876;28;20029;-66
2022/07/06 01:02:13;;;;;;;2.72;1.20;;;17.50;80.00;;;17.69;58.68;101840.09;5216085;28;20049;-67
2022/07/06 01:04:45;;;;;;;2.03;1.30;;;17.40;80.00;;;17.68;58.60;101838.34;5225715;28;20523;-68
2022/07/06 01:07:17;;;;;;;2.60;1.10;;;17.40;79.90;;;17.72;58.39;101841.09;5224542;28;20092;-67
2022/07/06 01:09:49;;;;;;;1.30;1.20;;;17.40;80.00;;;17.70;58.23;101841.88;5224629;28;20059;-66
2022/07/06 01:12:22;;;;;;;1.20;1.10;;;17.40;79.80;;;17.69;58.42;101848.03;5225734;28;20077;-66
2022/07/06 01:14:56;;;;;;;1.42;1.20;;;17.40;80.00;;;17.66;58.30;101847.94;5222012;28;20512;-67
2022/07/06 01:17:29;;;;;;;3.25;1.30;;;17.40;80.10;;;17.63;58.42;101848.75;5212640;28;20148;-67
2022/07/06 01:20:12;;;;;;;2.53;1.10;;;17.40;80.20;;;17.59;58.48;101850.44;5213401;28;20038;-67
2022/07/06 01:22:46;;;;;;;2.58;1.20;;;17.30;80.20;;;17.55;58.63;101838.06;5223794;28;20045;-67
2022/07/06 01:25:19;;;;;;;1.60;1.23;;;17.30;80.40;;;17.53;58.77;101836.22;5224290;28;20094;-67
2022/07/06 01:27:52;;;;;;;1.88;1.30;;;17.30;80.60;;;17.48;58.99;101838.78;5225725;28;20505;-67
2022/07/06 01:30:24;;;;;;;2.70;1.30;;;17.20;80.90;;;17.46;59.21;101837.81;5224450;28;20131;-67
2022/07/06 01:32:56;;;;;;;1.73;1.20;;;17.20;81.30;;;17.46;59.37;101842.22;5224534;28;20041;-67
2022/07/06 01:35:33;;;;;;;3.22;1.30;;;17.20;81.50;;;17.45;59.45;101843.06;5225388;28;20486;-68
2022/07/06 01:38:05;;;;;;;1.85;1.10;;;17.20;81.80;;;17.43;59.62;101845.66;5224434;28;20045;-68
2022/07/06 01:40:37;;;;;;;2.05;1.20;;;17.20;81.90;;;17.43;59.85;101844.78;5228533;28;20132;-68
2022/07/06 01:43:09;;;;;;;2.33;1.30;;;17.10;82.10;;;17.40;60.00;101836.78;5229442;28;20049;-68
2022/07/06 01:45:42;;;;;;;3.85;1.77;;;17.10;82.60;;;17.37;60.03;101842.88;5225910;28;20044;-67
2022/07/06 01:48:14;;;;;;;1.40;1.20;;;17.00;82.70;;;17.32;60.50;101839.25;5219879;28;20561;-67
2022/07/06 01:50:47;;;;;;;2.13;1.30;;;17.00;83.10;;;17.29;60.79;101841.81;5227914;28;20143;-67
2022/07/06 01:53:20;;;;;;;1.25;1.00;;;17.00;83.70;;;17.25;60.97;101845.22;5227909;28;20041;-67
2022/07/06 01:55:53;;;;;;;1.20;1.10;;;16.90;84.00;;;17.23;61.13;101836.41;5227687;28;20110;-66
2022/07/06 01:58:25;;;;;;;1.65;1.10;;;16.90;84.30;;;17.20;61.42;101841.59;5227949;28;20045;-68
2022/07/06 02:00:58;;;;;;;1.27;1.10;;;16.80;84.60;;;17.15;61.53;101841.50;5227691;28;20048;-67
2022/07/06 02:03:31;;;;;;;2.88;1.40;;;16.80;84.90;;;17.11;61.84;101839.63;5227589;28;20102;-66
2022/07/06 02:06:08;;;;;;;1.63;1.08;;;16.80;85.40;;;17.06;62.03;101836.88;5227484;28;20433;-67
2022/07/06 02:08:41;;;;;;;1.85;1.33;;;16.70;85.60;;;17.03;62.27;101836.81;5229153;28;20128;-66
2022/07/06 02:11:13;;;;;;;2.08;1.23;;;16.70;86.10;;;17.00;62.66;101847.25;5227484;28;20046;-68
2022/07/06 02:13:47;;;;;;;1.80;1.20;;;16.70;86.70;;;16.97;62.82;101841.94;5227908;28;20131;-67
2022/07/06 02:16:19;;;;;;;1.38;1.10;;;16.60;87.00;;;16.94;63.06;101847.09;5227362;28;20059;-68
2022/07/06 02:18:52;;;;;;;1.88;1.35;;;16.60;87.50;;;16.90;63.17;101847.88;5227651;28;20520;-66
2022/07/06 02:21:25;;;;;;;1.30;1.20;;;16.60;87.80;;;16.86;63.38;101853.91;5228760;28;20101;-66
2022/07/06 02:23:58;;;;;;;1.90;1.17;;;16.50;88.20;;;16.82;63.62;101852.03;5227540;28;20409;-66
2022/07/06 02:26:30;;;;;;;1.50;1.10;;;16.50;88.70;;;16.79;63.83;101844.09;5227009;28;20052;-68
2022/07/06 02:29:02;;;;;;;1.52;1.25;;;16.50;89.20;;;16.76;64.04;101846.66;5227296;28;20048;-68
2022/07/06 02:31:35;;;;;;;2.45;1.25;;;16.40;89.60;;;16.71;64.09;101854.41;5227294;28;20137;-67
2022/07/06 02:34:07;;;;;;;3.05;1.35;;;16.40;89.90;;;16.64;64.25;101848.91;5244006;28;20041;-67
2022/07/06 02:36:40;;;;;;;2.40;1.40;;;16.40;90.10;;;16.58;64.42;101846.13;5228309;28;20115;-68
2022/07/06 02:39:13;;;;;;;2.35;1.50;;;16.30;90.30;;;16.53;64.75;101844.25;5228451;28;20482;-68
2022/07/06 02:41:46;;;;;;;1.90;1.30;;;16.30;90.60;;;16.49;64.85;101847.63;5226988;28;20386;-67
2022/07/06 02:44:18;;;;;;;2.03;1.30;;;16.20;90.80;;;16.46;65.19;101847.56;5227067;28;20045;-67
2022/07/06 02:46:50;;;;;;;1.40;1.13;;;16.10;91.00;;;16.42;65.28;101853.56;5226752;28;20047;-66
2022/07/06 02:49:22;;;;;;;1.95;1.30;;;16.10;91.20;;;16.39;65.51;101845.63;5226958;28;20139;-66
2022/07/06 02:51:57;;;;;;;1.88;1.35;;;16.10;91.50;;;16.35;65.92;101843.72;5226270;28;20056;-68
2022/07/06 02:54:29;;;;;;;2.38;1.30;;;16.00;91.80;;;16.33;65.92;101845.44;5226858;28;20052;-67
2022/07/06 02:57:01;;;;;;;1.30;1.20;;;16.00;91.90;;;16.30;66.04;101850.63;5227801;28;20075;-68
2022/07/06 02:59:33;;;;;;;2.15;1.20;;;16.00;92.20;;;16.27;66.21;101850.53;5226804;28;20141;-68
2022/07/06 03:02:07;;;;;;;2.40;1.70;;;16.00;92.40;;;16.22;66.48;101847.75;5226549;28;20049;-68
2022/07/06 03:04:39;;;;;;;1.85;1.13;;;16.00;92.60;;;16.19;66.84;101852.06;5226539;28;20048;-67
2022/07/06 03:07:13;;;;;;;2.67;1.20;;;15.90;92.90;;;16.16;66.97;101851.94;5226606;28;20048;-67
2022/07/06 03:09:45;;;;;;;1.40;1.30;;;15.80;93.20;;;16.14;67.06;101853.66;5226548;28;20466;-67
2022/07/06 03:12:17;;;;;;;2.15;1.20;;;15.90;93.40;;;16.12;67.25;101858.00;5226495;28;20048;-66
2022/07/06 03:14:49;;;;;;;3.63;1.33;;;15.80;93.60;;;16.09;67.15;101858.78;5227474;28;20045;-67
2022/07/06 03:17:22;;;;;;;2.90;1.23;;;15.80;93.80;;;16.07;67.45;101857.84;5227707;28;20123;-66
2022/07/06 03:19:54;;;;;;;1.75;1.25;;;15.80;93.90;;;16.05;67.60;101858.66;5226274;28;20579;-67
2022/07/06 03:22:29;;;;;;;2.95;1.30;;;15.70;94.50;;;16.01;67.80;101858.56;5226327;28;20053;-66
2022/07/06 03:25:02;;;;;;;1.95;1.40;;;15.70;94.40;;;16.00;67.85;101862.03;5225917;28;20727;-68
2022/07/06 03:27:35;;;;;;;3.17;1.50;;;15.70;94.60;;;15.98;68.03;101863.75;5226240;28;20036;-68
2022/07/06 03:30:09;;;;;;;2.25;1.30;;;15.70;94.90;;;15.97;68.10;101861.03;5226217;28;20045;-67
2022/07/06 03:32:42;;;;;;;1.88;1.40;;;15.70;95.10;;;15.94;68.37;101856.59;5225954;28;20045;-68
2022/07/06 03:35:15;;;;;;;2.90;1.50;;;15.70;95.30;;;15.92;68.46;101858.31;5225704;28;20382;-67
2022/07/06 03:37:51;;;;;;;2.75;1.50;;;15.60;95.50;;;15.90;68.92;101859.97;5225985;28;20044;-69
2022/07/06 03:40:23;;;;;;;3.40;1.67;;;15.60;95.80;;;15.88;69.02;101859.03;5225879;28;20044;-66
2022/07/06 03:42:57;;;;;;;2.88;1.70;;;15.60;96.10;;;15.87;69.35;101870.41;5225818;28;20051;-67
2022/07/06 03:45:31;;;;;;;3.05;1.55;;;15.60;96.30;;;15.83;69.63;101865.00;5225679;28;20152;-67
2022/07/06 03:48:06;;;;;;;3.85;1.50;;;15.50;96.60;;;15.80;69.77;101863.19;5225815;28;20568;-67
2022/07/06 03:50:40;;;;;;;1.85;1.30;;;15.50;96.80;;;15.78;69.66;101870.16;5225770;28;20400;-67
2022/07/06 03:53:14;;;;;;;4.47;1.50;;;15.50;96.90;;;15.76;69.86;101873.56;5225772;28;20059;-67
2022/07/06 03:56:27;;;;;;;2.10;1.52;;;15.50;97.10;;;15.73;70.00;101874.38;5225476;28;20055;-68
2022/07/06 03:58:39;;;;;;;2.25;1.30;;;15.50;97.30;;;15.73;70.00;101877.00;5225588;28;20045;-67
2022/07/06 04:01:12;;;;;;;2.38;1.33;;;15.40;97.50;;;15.73;70.15;101875.25;5225516;28;20060;-67
2022/07/06 04:03:45;;;;;;;1.70;1.23;;;15.50;97.70;;;15.73;69.94;101872.63;5224689;28;20562;-66
2022/07/06 04:06:17;;;;;;;2.58;1.33;;;15.40;97.70;;;15.76;70.24;101870.94;5241890;28;20060;-67
2022/07/06 04:08:51;;;;;;;1.98;1.33;;;15.50;97.90;;;15.77;70.29;101878.84;5225414;28;20075;-67
2022/07/06 04:11:24;;;;;;;1.95;1.50;;;15.50;98.00;;;15.77;70.47;101876.22;5225333;28;20047;-67
2022/07/06 04:13:56;;;;;;;3.30;1.52;;;15.50;98.20;;;15.79;70.96;101877.19;5225424;28;20056;-67
2022/07/06 04:16:29;;;;;;;3.58;1.30;;;15.50;98.50;;;15.80;70.96;101876.34;5225185;28;20057;-66
2022/07/06 04:19:02;;;;;;;2.00;1.20;;;15.50;98.50;;;15.83;71.03;101880.78;5225362;28;20053;-67
2022/07/06 04:21:34;;;;;;;1.67;1.30;;;15.60;98.60;;;15.83;70.24;101888.66;5225241;28;20053;-67
2022/07/06 04:24:08;;;;;;;2.42;1.30;;;15.50;98.30;;;15.81;70.44;101890.38;5225251;28;20045;-67
2022/07/06 04:26:41;;;;;;;3.55;1.33;;;15.50;98.40;;;15.81;70.34;101895.63;5224864;28;20098;-66
2022/07/06 04:29:13;;;;;;;1.50;1.27;;;15.60;98.40;;;15.81;70.21;101896.50;5226440;28;20045;-67
2022/07/06 04:31:45;;;;;;;2.00;1.55;;;15.50;98.40;;;15.82;70.26;101898.28;5226326;28;20045;-67
2022/07/06 04:34:17;;;;;;;2.15;1.40;;;15.50;98.40;;;15.85;70.25;101903.66;5225125;28;20166;-67
2022/07/06 04:36:49;;;;;;;4.10;1.40;;;15.60;98.50;;;15.89;70.04;101902.00;5224731;28;20135;-67
2022/07/06 04:39:24;;;;;;;2.60;1.33;;;15.60;98.50;;;15.95;70.35;101905.72;5225056;28;20045;-67
2022/07/06 04:41:56;;;;;;;1.70;1.30;;;15.70;98.70;;;15.98;70.31;101900.56;5224941;28;20045;-69
2022/07/06 04:44:29;;;;;;;2.58;1.10;;;15.70;98.60;;;16.02;70.22;101897.16;5225282;28;20053;-68
2022/07/06 04:47:01;;;;;;;3.10;1.40;;;15.70;98.60;;;16.07;69.95;101899.06;5224742;28;20095;-67
2022/07/06 04:49:34;;;;;;;3.28;1.30;;;15.80;98.50;;;16.09;69.61;101886.81;5224910;28;20473;-66
2022/07/06 04:52:08;;;;;;;3.13;1.50;;;15.80;98.40;;;16.09;69.35;101892.97;5224730;28;20073;-67
2022/07/06 04:54:42;;;;;;;2.17;1.25;;;15.80;98.20;;;16.11;69.63;101890.41;5224658;28;20076;-67
2022/07/06 04:57:14;;;;;;;3.63;1.52;;;15.80;98.30;;;16.14;69.59;101898.38;5224838;28;20060;-67
2022/07/06 04:59:47;;;;;;;1.77;1.20;;;15.90;98.30;;;16.20;69.69;101904.72;5224843;28;20056;-67
2022/07/06 05:02:20;;;;;;;3.60;1.40;;;15.90;98.40;;;16.29;69.54;101904.06;5226065;28;20452;-66
2022/07/06 05:04:52;;;;;;;2.70;1.52;;;16.00;98.40;;;16.42;69.46;101913.22;5224318;28;20041;-66
2022/07/06 05:07:28;;;;;;;2.55;1.40;;;16.10;98.40;;;16.70;69.60;101904.41;5224486;28;20040;-68
2022/07/06 05:10:03;;;;;;;3.85;2.15;;;16.30;98.70;;;17.12;68.35;101909.91;5224591;28;20049;-67
2022/07/06 05:12:38;;;;;;;2.83;1.48;;;16.60;98.50;;;17.48;66.96;101915.22;5225705;28;20033;-67
2022/07/06 05:15:11;;;;;;;3.22;1.50;;;17.00;97.40;;;17.81;65.20;101911.63;5226811;28;20041;-66
2022/07/06 05:17:43;;;;;;;4.47;1.65;;;17.30;96.60;;;18.00;63.58;101913.81;5229923;28;20045;-66
2022/07/06 05:20:16;;;;;;;3.55;2.00;;;17.50;95.60;;;18.00;63.19;101905.91;5245268;28;20480;-68
2022/07/06 05:22:51;;;;;;;5.25;1.83;;;17.60;95.10;;;18.06;62.99;101897.22;5228448;28;20045;-67
2022/07/06 05:25:29;;;;;;;2.72;1.75;;;17.60;94.80;;;18.14;62.34;101909.72;5218119;28;20038;-69
2022/07/06 05:28:02;;;;;;;4.50;1.65;;;17.70;94.50;;;18.17;62.21;101909.78;5187299;28;20053;-67
2022/07/06 05:30:35;;;;;;;3.70;1.58;;;17.70;94.40;;;18.38;62.20;101903.16;5187729;28;20053;-67
2022/07/06 05:33:07;;;;;;;5.88;2.03;;;17.90;94.40;;;18.66;61.68;101910.81;5187544;28;20086;-67
2022/07/06 05:35:39;;;;;;;3.95;2.00;;;18.10;94.20;;;18.89;60.38;101907.72;5194368;28;20052;-66
2022/07/06 05:38:13;;;;;;;4.93;1.70;;;18.30;93.50;;;18.98;59.62;101910.53;5212640;28;20091;-66
2022/07/06 05:40:47;;;;;;;4.32;2.25;;;18.40;92.80;;;19.07;59.63;101902.75;5207898;28;20524;-66
2022/07/06 05:43:19;;;;;;;3.58;1.60;;;18.50;92.70;;;19.17;59.38;101896.78;5207334;28;20053;-66
2022/07/06 05:45:52;;;;;;;2.80;1.67;;;18.70;92.40;;;19.28;58.69;101902.22;5219676;28;20049;-66
2022/07/06 05:51:17;;;;;;;5.57;1.65;;;18.80;91.60;;;19.47;58.13;101904.31;5215514;28;20049;-66
2022/07/06 05:53:51;;;;;;;4.05;2.00;;;18.90;91.50;;;19.54;57.53;101907.94;5228957;28;20053;-68
2022/07/06 05:56:26;;;;;;;4.78;1.80;;;19.00;91.40;;;19.41;57.78;101913.91;5219520;28;20050;-67
2022/07/06 05:58:59;;;;;;;5.22;1.83;;;19.00;90.90;;;19.33;58.25;101916.41;5228115;28;20107;-67
2022/07/06 06:01:31;;;;;;;4.70;1.52;;;18.90;91.10;;;19.36;58.86;101915.56;5209678;28;20510;-66
2022/07/06 06:04:28;;;;;;;;;;;;;;;;;;;;;
2022/07/06 06:07:04;;;;;;;4.15;1.60;;;19.00;91.60;;;19.54;58.47;101926.44;5221662;28;20147;-63
2022/07/06 06:09:36;;;;;;;4.85;1.80;;;19.00;91.30;;;19.68;58.02;101926.69;5228988;28;20048;-65
2022/07/06 06:12:11;;;;;;;3.67;1.58;;;19.10;91.00;;;19.73;57.62;101933.84;5202504;28;20045;-64
2022/07/06 06:14:43;;;;;;;2.58;1.20;;;19.20;90.80;;;19.77;57.64;101935.69;5200680;28;20398;-62
2022/07/06 06:17:15;;;;;;;4.20;1.60;;;19.30;90.70;;;19.95;57.45;101932.41;5191982;28;20049;-63
2022/07/06 06:19:47;;;;;;;2.03;1.05;;;19.40;90.60;;;20.07;56.97;101929.03;5208328;28;20139;-69
2022/07/06 06:22:19;;;;;;;3.70;1.42;;;19.50;90.30;;;20.19;56.86;101928.31;5223380;28;20037;-61
2022/07/06 06:24:52;;;;;;;2.25;1.10;;;19.60;90.50;;;20.30;56.71;101930.22;5229240;28;20055;-61
2022/07/06 06:27:26;;;;;;;2.00;0.95;;;19.70;90.10;;;20.51;56.33;101934.03;5229531;28;20049;-67
2022/07/06 06:29:58;;;;;;;1.58;1.13;;;19.90;89.80;;;20.70;55.75;101927.19;5216542;28;20053;-67
2022/07/06 06:32:30;;;;;;;2.58;1.15;;;20.10;89.10;;;20.76;54.95;101928.16;5217506;28;20037;-66
2022/07/06 06:35:02;;;;;;;2.28;1.10;;;20.10;87.80;;;20.82;54.94;101928.22;5229894;28;20520;-67
2022/07/06 06:37:35;;;;;;;2.00;1.15;;;20.20;87.50;;;20.86;54.63;101922.09;5230902;28;20053;-66
2022/07/06 06:40:09;;;;;;;2.05;0.90;;;20.30;87.10;;;20.77;54.52;101929.03;5231777;28;20489;-64
2022/07/06 06:42:43;;;;;;;1.85;0.80;;;20.20;86.60;;;20.67;55.00;101927.16;5222948;28;20038;-65
2022/07/06 06:45:18;;;;;;;3.72;1.23;;;20.10;86.60;;;20.75;54.96;101931.69;5227586;28;20140;-65
2022/07/06 06:47:50;;;;;;;5.18;1.45;;;20.20;86.80;;;20.68;54.86;101929.84;5209202;28;20056;-64
2022/07/06 06:50:23;;;;;;;5.55;1.10;;;20.10;86.20;;;20.56;54.92;101935.00;5225022;28;20458;-65
2022/07/06 06:52:55;;;;;;;4.47;1.13;;;20.10;86.20;;;20.43;55.17;101941.88;5233107;28;20416;-65
2022/07/06 06:55:28;;;;;;;1.35;0.80;;;20.00;86.20;;;20.31;55.42;101941.72;5233665;28;20029;-65
2022/07/06 06:58:01;;;;;;;1.80;0.82;;;20.00;86.30;;;20.30;55.47;101937.28;5234067;28;20041;-66
2022/07/06 07:00:33;;;;;;;2.08;0.82;;;19.90;86.30;;;20.40;55.04;101941.81;5224776;28;20052;-66
2022/07/06 07:03:05;;;;;;;3.70;0.90;;;19.90;86.10;;;20.34;54.52;101941.75;5227089;28;20115;-65
2022/07/06 07:05:38;;;;;;;1.65;0.90;;;19.80;85.30;;;20.23;54.54;101941.63;5224140;28;20049;-66
2022/07/06 07:08:10;;;;;;;1.13;0.63;;;19.70;85.20;;;20.20;54.99;101944.22;5209520;28;20045;-65
2022/07/06 07:10:42;;;;;;;1.35;0.60;;;19.70;85.80;;;20.31;55.13;101939.94;5209834;28;20040;-66
2022/07/06 07:13:15;;;;;;;2.05;0.68;;;19.70;86.20;;;20.58;54.90;101950.03;5213641;28;20050;-64
2022/07/06 07:15:47;;;;;;;1.10;0.85;;;20.00;86.20;;;20.81;54.14;101944.13;5191223;28;20056;-66
2022/07/06 07:18:20;;;;;;;2.03;0.90;;;20.10;85.30;;;21.10;53.20;101944.41;5191173;28;20045;-65
2022/07/06 07:20:52;;;;;;;1.38;0.82;;;20.40;84.40;;;21.24;52.80;101947.19;5216542;28;20404;-65
2022/07/06 07:23:24;;;;;;;1.48;0.73;;;20.60;83.40;;;21.45;52.29;101951.81;5225546;28;20116;-65
2022/07/06 07:25:56;;;;;;;2.95;0.80;;;20.70;82.80;;;21.61;51.66;101948.41;5217759;28;20045;-65
2022/07/06 07:28:29;;;;;;;3.58;0.90;;;20.90;81.90;;;21.64;51.22;101948.44;5207732;28;20095;-65
2022/07/06 07:31:02;;;;;;;2.30;0.80;;;21.00;81.10;;;21.63;50.39;101941.34;5201438;28;20505;-68
2022/07/06 07:33:35;;;;;;;2.05;0.50;;;21.00;79.60;;;21.84;50.22;101946.81;5227815;28;20127;-68
2022/07/06 07:36:07;;;;;;;1.73;1.00;;;21.10;79.10;;;22.00;48.96;101954.88;5227679;28;20124;-68
2022/07/06 07:38:40;;;;;;;2.08;0.60;;;21.30;77.70;;;21.85;48.50;101951.25;5227499;28;20090;-69
2022/07/06 07:41:13;;;;;;;1.65;0.60;;;21.20;76.50;;;21.67;48.59;101954.66;5227618;28;20041;-68
2022/07/06 07:43:47;;;;;;;2.20;0.55;;;21.10;76.30;;;21.52;49.02;101949.25;5227605;28;20045;-68
2022/07/06 07:46:19;;;;;;;1.08;0.70;;;20.90;76.40;;;21.37;49.48;101946.44;5227664;28;20044;-68
2022/07/06 07:48:51;;;;;;;1.23;0.77;;;20.80;76.80;;;21.21;49.82;101950.69;5227835;28;20128;-68
2022/07/06 07:51:25;;;;;;;2.63;0.93;;;20.70;77.20;;;21.04;50.33;101962.91;5209590;28;20055;-69
2022/07/06 07:53:57;;;;;;;0.77;0.68;;;20.50;77.50;;;20.91;50.31;101953.94;5227631;28;20045;-69
2022/07/06 07:56:29;;;;;;;1.55;0.60;;;20.40;78.50;;;20.75;50.33;101963.47;5209534;28;20514;-68
2022/07/06 07:59:03;;;;;;;1.92;0.82;;;20.20;77.60;;;20.61;50.78;101954.50;5226953;28;20136;-68
2022/07/06 08:01:38;;;;;;;4.50;0.90;;;20.10;77.90;;;20.43;51.15;101959.53;5208116;28;20045;-68
2022/07/06 08:04:10;;;;;;;3.53;0.77;;;20.00;78.50;;;20.28;51.62;101947.88;5226515;28;20513;-68
2022/07/06 08:06:42;;;;;;;0.68;0.60;;;19.80;78.90;;;20.19;52.16;101944.19;5209024;28;20049;-67
2022/07/06 08:09:16;;;;;;;1.45;0.80;;;19.70;79.30;;;20.17;52.59;101956.53;5227023;28;20123;-67
2022/07/06 08:11:48;;;;;;;2.13;0.73;;;19.70;80.00;;;20.10;52.51;101952.91;5226754;28;20041;-68
2022/07/06 08:14:22;;;;;;;1.58;0.68;;;19.60;79.90;;;20.04;52.60;101953.72;5227202;28;20123;-69
2022/07/06 08:16:54;;;;;;;2.85;0.70;;;19.50;80.20;;;20.42;52.98;101952.44;5227289;28;20048;-67
2022/07/06 08:19:27;;;;;;;3.35;1.02;;;19.70;81.20;;;21.08;51.68;101948.81;5227254;28;20041;-68
2022/07/06 08:21:59;;;;;;;0.98;0.70;;;20.00;81.40;;;21.37;50.86;101944.69;5226896;28;20124;-68
2022/07/06 08:24:31;;;;;;;2.10;0.63;;;20.30;80.30;;;21.27;50.40;101953.41;5227102;28;20489;-68
2022/07/06 08:27:04;;;;;;;1.90;0.57;;;20.30;79.30;;;20.92;51.06;101961.00;5226885;28;20037;-68
2022/07/06 08:29:38;;;;;;;0.98;0.50;;;20.20;79.20;;;20.63;51.67;101958.03;5226896;28;20049;-68
2022/07/06 08:32:10;;;;;;;2.38;0.65;;;20.00;79.50;;;20.42;52.03;101953.34;5226650;28;20047;-68
2022/07/06 08:34:44;;;;;;;1.55;0.70;;;19.90;79.80;;;20.41;52.40;101953.28;5226885;28;20037;-68
2022/07/06 08:37:16;;;;;;;2.17;0.60;;;19.80;80.20;;;21.12;51.83;101943.53;5226955;28;20131;-69
2022/07/06 08:39:48;;;;;;;1.77;0.80;;;20.00;81.10;;;22.19;49.04;101948.81;5226639;28;20405;-68
2022/07/06 08:42:21;;;;;;;2.40;0.88;;;20.50;79.60;;;22.17;47.63;101950.59;5226795;28;20118;-68
2022/07/06 08:44:55;;;;;;;2.45;0.50;;;20.70;77.20;;;21.67;48.17;101953.78;5226558;28;20041;-68
2022/07/06 08:47:28;;;;;;;0.73;0.50;;;20.50;76.60;;;21.33;48.75;101950.84;5226614;28;20047;-68
2022/07/06 08:50:03;;;;;;;1.00;0.60;;;20.40;76.80;;;21.08;49.26;101951.47;5208738;28;20080;-68
2022/07/06 08:52:35;;;;;;;4.18;0.98;;;20.20;76.80;;;20.92;49.64;101946.84;5226479;28;20505;-68
2022/07/06 08:55:10;;;;;;;2.45;0.68;;;20.10;77.00;;;20.81;50.11;101942.34;5226475;28;20094;-69
2022/07/06 08:57:43;;;;;;;0.90;0.70;;;20.10;77.60;;;20.75;50.72;101942.28;5226404;28;20048;-68
2022/07/06 09:00:17;;;;;;;3.42;0.95;;;20.10;78.70;;;20.61;50.78;101951.84;5227021;28;20041;-68
2022/07/06 09:02:50;;;;;;;;;;;20.00;77.70;;;20.51;50.97;101952.59;5226598;28;20072;-70
2022/07/06 09:05:24;;;;;;;1.08;0.65;;;20.00;77.90;;;20.48;51.03;101942.84;5226390;28;19952;-69
2022/07/06 09:07:57;;;;;;;1.35;0.70;;;20.00;77.90;;;20.54;51.16;101945.59;5226309;28;20049;-68
2022/07/06 09:10:29;;;;;;;1.60;0.60;;;20.00;78.20;;;20.77;51.45;101943.19;5226327;28;20515;-69
2022/07/06 09:13:05;;;;;;;0.70;0.70;;;20.10;78.60;;;21.07;50.59;101944.38;5226252;28;20033;-69
2022/07/06 09:15:39;;;;;;;0.70;0.60;;;20.20;78.30;;;21.12;50.12;101937.34;5226529;28;20054;-69
2022/07/06 09:18:12;;;;;;;1.13;0.47;;;20.30;77.50;;;21.09;50.40;101942.63;5208290;28;20146;-68
2022/07/06 09:20:44;;;;;;;1.13;0.60;;;20.40;77.90;;;21.03;50.72;101937.25;5226068;28;20051;-69
2022/07/06 09:23:18;;;;;;;0.70;0.55;;;20.40;77.90;;;20.98;50.44;101949.56;5226135;28;20053;-70
2022/07/06 09:25:50;;;;;;;2.25;0.90;;;20.40;77.60;;;21.03;50.64;101945.22;5208269;28;20079;-72
2022/07/06 09:28:22;;;;;;;1.40;0.68;;;20.40;77.70;;;21.31;51.08;101946.38;5185054;28;20041;-70
2022/07/06 09:30:57;;;;;;;0.80;0.50;;;20.50;78.70;;;21.58;50.67;101940.41;5193354;28;20669;-69
2022/07/06 09:33:30;;;;;;;0.88;0.60;;;20.70;78.30;;;21.74;50.00;101937.00;5225977;28;20433;-70
2022/07/06 09:36:02;;;;;;;0.90;0.45;;;20.90;77.60;;;21.82;49.61;101947.69;5210202;28;20050;-71
2022/07/06 09:38:34;;;;;;;1.58;0.88;;;21.00;77.00;;;21.80;49.27;101944.13;5189345;28;20037;-70
2022/07/06 09:41:06;;;;;;;1.38;0.60;;;21.10;76.40;;;21.71;48.92;101944.94;5193305;28;20073;-69
2022/07/06 09:43:38;;;;;;;3.00;0.63;;;21.00;75.60;;;21.62;49.21;101948.41;5205348;28;20037;-71
2022/07/06 09:46:15;;;;;;;2.17;0.70;;;21.00;75.70;;;21.53;49.17;101944.81;5195207;28;20109;-69
2022/07/06 09:48:48;;;;;;;2.40;0.60;;;21.00;75.40;;;21.40;49.05;101944.72;5226625;28;20045;-68
2022/07/06 09:51:21;;;;;;;1.75;0.55;;;20.90;75.20;;;21.21;49.19;101947.16;5225911;28;20048;-70
2022/07/06 09:53:54;;;;;;;2.05;0.63;;;20.70;74.90;;;21.07;49.33;101939.09;5225715;28;20037;-68
2022/07/06 09:56:38;;;;;;;0.90;0.50;;;20.60;75.10;;;21.06;49.47;101946.16;5225803;28;20049;-68
2022/07/06 09:59:11;;;;;;;1.25;0.60;;;20.60;75.30;;;21.08;49.18;101941.75;5226294;28;20049;-68
2022/07/06 10:01:45;;;;;;;0.90;0.60;;;20.60;75.10;;;21.14;49.07;101935.63;5194410;28;20052;-70
2022/07/06 10:04:18;;;;;;;3.42;0.80;;;20.50;74.90;;;21.26;48.77;101951.63;5211729;28;20038;-69
2022/07/06 10:06:51;;;;;;;1.73;0.73;;;20.70;74.70;;;21.23;48.38;101953.38;5227714;28;20143;-70
2022/07/06 10:09:25;;;;;;;1.05;0.60;;;20.70;74.00;;;21.18;48.64;101958.63;5211260;28;20053;-69
2022/07/06 10:12:00;;;;;;;1.70;0.57;;;20.60;74.00;;;21.15;48.53;101955.94;5202350;28;20053;-69
2022/07/06 10:14:34;;;;;;;1.83;0.95;;;20.60;74.00;;;21.10;48.73;101961.19;5208435;28;20041;-70
2022/07/06 10:17:08;;;;;;;1.67;0.70;;;20.60;73.90;;;20.99;48.93;101954.00;5205119;28;20462;-71
2022/07/06 10:19:41;;;;;;;1.35;0.77;;;20.50;74.10;;;20.99;49.14;101956.66;5219518;28;20131;-71
2022/07/06 10:22:15;;;;;;;1.40;0.68;;;20.50;74.40;;;20.91;48.89;101959.22;5221346;28;20054;-69
2022/07/06 10:24:48;;;;;;;1.65;0.70;;;20.50;74.00;;;20.79;48.79;101949.38;5188697;28;20056;-69
2022/07/06 10:27:21;;;;;;;0.98;0.60;;;20.40;73.80;;;20.83;48.92;101952.97;5219618;28;20608;-70
2022/07/06 10:29:53;;;;;;;1.75;0.50;;;20.40;73.90;;;20.90;49.06;101953.91;5220952;28;20041;-70
2022/07/06 10:32:27;;;;;;;0.50;0.50;;;20.40;74.20;;;21.03;49.22;101959.34;5214954;28;20041;-71
2022/07/06 10:35:00;;;;;;;0.82;0.57;;;20.60;74.40;;;21.18;49.35;101952.44;5204871;28;20120;-69
2022/07/06 10:37:33;;;;;;;0.70;0.70;;;20.60;74.40;;;21.25;48.77;101944.53;5202312;28;20044;-71
2022/07/06 10:43:01;;;;;;;2.47;0.47;;;20.80;73.90;;;21.62;47.84;101955.50;5198805;28;20045;-70
2022/07/06 10:45:53;;;;;;;0.95;0.63;;;21.00;73.20;;;21.89;47.48;101947.72;5207614;28;20052;-70
2022/07/06 10:48:36;;;;;;;1.50;0.47;;;21.20;72.80;;;22.41;46.07;101947.16;5207879;28;20041;-70